createdAt,value
2023-03-03T00:01:07.254Z,3.30
2023-03-03T00:03:35.647Z,3.10
2023-03-03T00:06:04.824Z,2.22
2023-03-03T00:08:33.045Z,3.70
2023-03-03T00:11:03.297Z,2.58
2023-03-03T00:13:32.454Z,2.63
2023-03-03T00:16:15.174Z,1.98
2023-03-03T00:18:46.030Z,1.30
2023-03-03T00:21:25.811Z,3.78
2023-03-03T00:23:55.187Z,1.85
2023-03-03T00:26:27.522Z,2.35
2023-03-03T00:28:57.052Z,2.13
2023-03-03T00:31:31.849Z,2.30
2023-03-03T00:34:12.996Z,2.28
2023-03-03T00:36:43.143Z,2.92
2023-03-03T00:39:22.152Z,1.63
2023-03-03T00:41:50.677Z,1.65
2023-03-03T00:44:49.214Z,5.55
2023-03-03T00:47:39.146Z,1.63
2023-03-03T00:50:27.981Z,1.70
2023-03-03T00:53:02.702Z,2.10
2023-03-03T00:55:31.711Z,6.10
2023-03-03T00:57:59.830Z,2.20
2023-03-03T01:00:34.303Z,1.40
2023-03-03T01:03:06.778Z,2.10
2023-03-03T01:05:35.358Z,1.20
2023-03-03T01:08:04.189Z,2.33
2023-03-03T01:10:35.492Z,3.03
2023-03-03T01:13:04.163Z,2.22
2023-03-03T01:15:32.086Z,4.63
2023-03-03T01:18:00.178Z,1.35
2023-03-03T01:20:29.441Z,2.25
2023-03-03T01:22:57.504Z,2.55
2023-03-03T01:25:25.597Z,2.13
2023-03-03T01:27:53.478Z,1.85
2023-03-03T01:30:21.677Z,4.53
2023-03-03T01:32:49.705Z,2.03
2023-03-03T01:35:18.536Z,1.65
2023-03-03T01:37:47.883Z,2.85
2023-03-03T01:40:17.828Z,3.03
2023-03-03T01:42:45.827Z,1.48
2023-03-03T01:45:20.456Z,2.78
2023-03-03T01:47:53.851Z,1.90
2023-03-03T01:50:32.473Z,3.38
2023-03-03T01:53:05.518Z,2.40
2023-03-03T01:55:37.872Z,2.30
2023-03-03T01:58:09.687Z,2.85
2023-03-03T02:00:40.378Z,2.60
2023-03-03T02:03:08.657Z,6.00
2023-03-03T02:05:37.237Z,2.53
2023-03-03T02:08:09.978Z,1.55
2023-03-03T02:10:38.680Z,1.70
2023-03-03T02:13:06.807Z,2.10
2023-03-03T02:15:37.021Z,1.20
2023-03-03T02:18:07.564Z,2.55
2023-03-03T02:20:51.319Z,2.22
2023-03-03T02:23:25.396Z,1.60
2023-03-03T02:26:10.889Z,1.20
2023-03-03T02:28:41.538Z,1.88
2023-03-03T02:31:14.365Z,4.05
2023-03-03T02:33:45.602Z,2.03
2023-03-03T02:36:16.824Z,2.63
2023-03-03T02:38:50.767Z,2.30
2023-03-03T02:41:30.191Z,2.60
2023-03-03T02:44:02.277Z,4.38
2023-03-03T02:46:35.407Z,4.00
2023-03-03T02:49:04.473Z,3.35
2023-03-03T02:51:32.493Z,2.10
2023-03-03T02:54:00.443Z,2.00
2023-03-03T02:56:32.167Z,1.70
2023-03-03T02:59:00.579Z,1.08
2023-03-03T03:01:31.800Z,4.25
2023-03-03T03:04:00.267Z,2.42
2023-03-03T03:06:28.900Z,1.60
2023-03-03T03:08:57.684Z,2.08
2023-03-03T03:11:25.591Z,1.55
2023-03-03T03:13:55.066Z,2.17
2023-03-03T03:16:24.327Z,2.03
2023-03-03T03:18:52.259Z,1.42
2023-03-03T03:21:20.367Z,1.48
2023-03-03T03:23:48.727Z,2.53
2023-03-03T03:26:16.813Z,3.70
2023-03-03T03:28:45.476Z,1.88
2023-03-03T03:31:15.682Z,2.50
2023-03-03T03:33:43.980Z,1.45
2023-03-03T03:36:13.608Z,2.90
2023-03-03T03:38:42.809Z,2.08
2023-03-03T03:41:12.950Z,2.05
2023-03-03T03:43:41.405Z,1.88
2023-03-03T03:46:09.748Z,1.05
2023-03-03T03:48:39.119Z,1.95
2023-03-03T03:51:08.980Z,1.70
2023-03-03T03:53:37.015Z,2.53
2023-03-03T03:56:05.331Z,2.03
2023-03-03T03:58:33.602Z,1.98
2023-03-03T04:01:06.574Z,0.55
2023-03-03T04:03:38.944Z,1.55
2023-03-03T04:06:11.331Z,1.80
2023-03-03T04:08:39.560Z,2.60
2023-03-03T04:11:09.053Z,2.08
2023-03-03T04:13:37.990Z,1.45
2023-03-03T04:16:08.261Z,1.88
2023-03-03T04:18:37.129Z,4.03
2023-03-03T04:21:07.038Z,1.73
2023-03-03T04:23:35.317Z,2.00
2023-03-03T04:26:03.974Z,1.17
2023-03-03T04:28:32.062Z,3.17
2023-03-03T04:31:01.031Z,2.10
2023-03-03T04:33:31.306Z,2.55
2023-03-03T04:36:00.307Z,3.80
2023-03-03T04:38:29.739Z,1.85
2023-03-03T04:40:58.355Z,2.28
2023-03-03T04:43:29.008Z,4.93
2023-03-03T04:45:58.084Z,2.08
2023-03-03T04:48:26.255Z,3.60
2023-03-03T04:50:54.871Z,2.30
2023-03-03T04:53:23.007Z,1.55
2023-03-03T04:55:54.078Z,4.07
2023-03-03T04:58:23.239Z,3.35
2023-03-03T05:00:55.965Z,1.20
2023-03-03T05:03:26.911Z,3.75
2023-03-03T05:05:55.176Z,3.30
2023-03-03T05:08:23.493Z,10.48
2023-03-03T05:10:55.601Z,2.58
2023-03-03T05:13:23.905Z,1.83
2023-03-03T05:15:52.378Z,2.75
2023-03-03T05:18:20.987Z,2.22
2023-03-03T05:20:48.963Z,1.73
2023-03-03T05:23:17.397Z,3.58
2023-03-03T05:25:45.731Z,2.22
2023-03-03T05:28:15.239Z,3.92
2023-03-03T05:30:43.334Z,2.10
2023-03-03T05:33:15.180Z,2.88
2023-03-03T05:35:43.486Z,1.98
2023-03-03T05:38:11.963Z,3.53
2023-03-03T05:40:40.294Z,2.35
2023-03-03T05:43:08.287Z,3.83
2023-03-03T05:45:37.663Z,3.88
2023-03-03T05:48:05.857Z,2.17
2023-03-03T05:50:34.531Z,2.13
2023-03-03T05:53:02.795Z,1.55
2023-03-03T05:55:30.800Z,4.88
2023-03-03T05:57:58.880Z,3.60
2023-03-03T06:00:27.222Z,3.90
2023-03-03T06:02:56.642Z,3.95
2023-03-03T06:05:24.647Z,3.95
2023-03-03T06:07:52.673Z,6.00
2023-03-03T06:10:21.038Z,3.58
2023-03-03T06:12:55.153Z,1.58
2023-03-03T06:15:23.342Z,2.20
2023-03-03T06:17:51.382Z,2.58
2023-03-03T06:20:20.901Z,4.53
2023-03-03T06:22:48.937Z,2.38
2023-03-03T06:25:17.212Z,2.95
2023-03-03T06:27:45.514Z,3.00
2023-03-03T06:30:14.267Z,6.55
2023-03-03T06:32:42.402Z,5.10
2023-03-03T06:35:10.592Z,4.53
2023-03-03T06:37:39.955Z,3.58
2023-03-03T06:40:09.282Z,1.58
2023-03-03T06:42:37.351Z,2.55
2023-03-03T06:45:06.120Z,3.33
2023-03-03T06:47:34.030Z,3.75
2023-03-03T06:50:02.164Z,5.07
2023-03-03T06:52:30.136Z,2.70
2023-03-03T06:55:02.614Z,3.83
2023-03-03T06:57:33.807Z,7.07
2023-03-03T07:00:15.503Z,6.10
2023-03-03T07:02:43.862Z,7.20
2023-03-03T07:05:15.978Z,6.22
2023-03-03T07:07:44.046Z,7.78
2023-03-03T07:10:24.894Z,5.22
2023-03-03T07:12:53.193Z,5.20
2023-03-03T07:15:24.397Z,3.30
2023-03-03T07:17:58.281Z,6.72
2023-03-03T07:20:33.574Z,4.00
2023-03-03T07:23:01.703Z,5.13
2023-03-03T07:25:35.425Z,7.28
2023-03-03T07:28:21.681Z,4.22
2023-03-03T07:30:49.779Z,6.15
2023-03-03T07:33:26.797Z,2.67
2023-03-03T07:35:56.368Z,6.20
2023-03-03T07:38:35.706Z,4.10
2023-03-03T07:41:12.126Z,8.45
2023-03-03T07:43:44.347Z,5.60
2023-03-03T07:46:32.041Z,5.55
2023-03-03T07:49:01.492Z,5.55
2023-03-03T07:51:31.885Z,3.92
2023-03-03T07:54:15.872Z,5.50
2023-03-03T07:56:45.892Z,12.43
2023-03-03T07:59:22.200Z,6.85
2023-03-03T08:01:53.372Z,7.55
2023-03-03T08:04:25.576Z,9.80
2023-03-03T08:06:55.957Z,5.90
2023-03-03T08:09:44.114Z,4.95
2023-03-03T08:12:39.375Z,7.95
2023-03-03T08:15:19.776Z,5.60
2023-03-03T08:17:48.550Z,2.80
2023-03-03T08:20:48.172Z,6.75
2023-03-03T08:23:18.228Z,6.57
2023-03-03T08:25:46.996Z,6.15
2023-03-03T08:28:16.786Z,5.75
2023-03-03T08:30:47.166Z,5.32
2023-03-03T08:33:15.818Z,7.78
2023-03-03T08:35:44.311Z,10.48
2023-03-03T08:38:15.875Z,10.52
2023-03-03T08:40:44.444Z,8.40
2023-03-03T08:43:16.994Z,14.32
2023-03-03T08:45:47.732Z,9.05
2023-03-03T08:48:16.314Z,5.68
2023-03-03T08:50:45.547Z,24.85
2023-03-03T08:53:14.727Z,50.15
2023-03-03T08:55:43.258Z,35.90
2023-03-03T08:58:11.228Z,19.50
2023-03-03T09:00:39.466Z,19.75
2023-03-03T09:03:09.019Z,15.82
2023-03-03T09:05:39.020Z,19.40
2023-03-03T09:08:09.715Z,15.68
2023-03-03T09:10:38.237Z,14.40
2023-03-03T09:13:12.430Z,12.13
2023-03-03T09:15:40.780Z,14.73
2023-03-03T09:18:17.541Z,9.70
2023-03-03T09:20:46.969Z,9.32
2023-03-03T09:23:34.864Z,7.97
2023-03-03T09:26:31.336Z,11.90
2023-03-03T09:29:10.918Z,10.10
2023-03-03T09:31:43.506Z,10.60
2023-03-03T09:34:22.417Z,9.40
2023-03-03T09:36:51.779Z,4.97
2023-03-03T09:39:21.619Z,5.07
2023-03-03T09:42:42.884Z,6.13
2023-03-03T09:45:41.874Z,7.78
2023-03-03T09:48:34.069Z,6.25
2023-03-03T09:51:27.195Z,9.82
2023-03-03T09:54:06.330Z,8.73
2023-03-03T09:56:38.778Z,6.05
2023-03-03T09:59:24.068Z,6.30
2023-03-03T10:02:06.586Z,5.53
2023-03-03T10:04:50.755Z,11.13
2023-03-03T10:07:40.346Z,5.50
2023-03-03T10:10:22.533Z,6.43
2023-03-03T10:13:03.477Z,5.80
2023-03-03T10:15:44.218Z,6.03
2023-03-03T10:18:24.382Z,7.97
2023-03-03T10:21:05.772Z,10.20
2023-03-03T10:23:57.634Z,10.75
2023-03-03T10:26:54.652Z,6.43
2023-03-03T10:29:37.075Z,5.93
2023-03-03T10:32:27.380Z,5.05
2023-03-03T10:35:15.585Z,6.18
2023-03-03T10:37:54.140Z,3.35
2023-03-03T10:40:30.165Z,7.20
2023-03-03T10:43:29.906Z,3.40
2023-03-03T10:46:21.779Z,5.60
2023-03-03T10:49:03.223Z,6.50
2023-03-03T10:51:40.799Z,7.28
2023-03-03T10:54:31.235Z,6.80
2023-03-03T10:57:08.511Z,3.30
2023-03-03T10:59:52.690Z,5.32
2023-03-03T11:02:26.573Z,3.35
2023-03-03T11:05:23.902Z,3.00
2023-03-03T11:07:56.718Z,3.13
2023-03-03T11:10:51.195Z,2.50
2023-03-03T11:13:27.343Z,2.38
2023-03-03T11:16:06.492Z,15.02
2023-03-03T11:18:52.714Z,6.47
2023-03-03T11:21:26.008Z,11.35
2023-03-03T11:24:03.322Z,3.83
2023-03-03T11:26:46.498Z,4.35
2023-03-03T11:29:29.413Z,6.95
2023-03-03T11:32:01.762Z,3.25
2023-03-03T11:34:47.203Z,2.90
2023-03-03T11:37:23.031Z,3.00
2023-03-03T11:39:54.634Z,4.88
2023-03-03T11:42:27.744Z,3.05
2023-03-03T11:45:01.154Z,4.03
2023-03-03T11:47:34.873Z,2.95
2023-03-03T11:50:05.530Z,3.33
2023-03-03T11:52:44.667Z,3.55
2023-03-03T11:55:16.435Z,2.40
2023-03-03T11:57:51.847Z,2.13
2023-03-03T12:00:32.098Z,5.07
2023-03-03T12:03:15.570Z,3.08
2023-03-03T12:05:51.264Z,3.63
2023-03-03T12:08:31.678Z,5.70
2023-03-03T12:11:08.988Z,4.93
2023-03-03T12:13:50.702Z,8.00
2023-03-03T12:16:29.597Z,4.60
2023-03-03T12:19:11.467Z,6.60
2023-03-03T12:21:55.471Z,3.50
2023-03-03T12:24:34.152Z,7.85
2023-03-03T12:27:12.595Z,3.13
2023-03-03T12:29:51.476Z,5.88
2023-03-03T12:32:35.211Z,5.13
2023-03-03T12:35:10.949Z,4.05
2023-03-03T12:37:50.831Z,4.45
2023-03-03T12:40:21.889Z,3.53
2023-03-03T12:43:05.836Z,8.07
2023-03-03T12:45:45.192Z,3.35
2023-03-03T12:48:18.522Z,5.25
2023-03-03T12:51:00.468Z,4.60
2023-03-03T12:53:54.804Z,5.35
2023-03-03T12:56:31.659Z,3.83
2023-03-03T12:59:05.837Z,5.55
2023-03-03T13:01:53.696Z,5.00
2023-03-03T13:04:34.312Z,2.90
2023-03-03T13:07:09.562Z,5.40
2023-03-03T13:09:53.339Z,5.70
2023-03-03T13:12:33.747Z,3.63
2023-03-03T13:15:09.682Z,6.72
2023-03-03T13:17:43.923Z,3.97
2023-03-03T13:20:26.248Z,2.75
2023-03-03T13:23:00.854Z,3.88
2023-03-03T13:25:42.142Z,3.10
2023-03-03T13:28:19.507Z,3.33
2023-03-03T13:30:51.136Z,7.93
2023-03-03T13:33:26.775Z,4.05
2023-03-03T13:36:01.096Z,2.95
2023-03-03T13:38:32.279Z,2.20
2023-03-03T13:41:08.034Z,1.52
2023-03-03T13:43:44.800Z,2.63
2023-03-03T13:46:19.563Z,2.67
2023-03-03T13:49:21.256Z,1.67
2023-03-03T13:51:57.592Z,1.15
2023-03-03T13:54:55.974Z,4.45
2023-03-03T13:57:55.509Z,1.05
2023-03-03T14:00:36.816Z,5.15
2023-03-03T14:03:19.015Z,4.53
2023-03-03T14:05:50.899Z,2.95
2023-03-03T14:08:36.645Z,5.22
2023-03-03T14:11:12.322Z,2.58
2023-03-03T14:13:50.709Z,3.58
2023-03-03T14:16:23.905Z,3.40
2023-03-03T14:18:58.140Z,2.88
2023-03-03T14:21:32.450Z,3.67
2023-03-03T14:24:08.605Z,2.95
2023-03-03T14:26:49.548Z,2.50
2023-03-03T14:29:32.613Z,2.72
2023-03-03T14:32:02.695Z,2.67
2023-03-03T14:34:39.394Z,1.38
2023-03-03T14:37:23.861Z,1.70
2023-03-03T14:40:21.281Z,1.60
2023-03-03T14:42:55.640Z,1.40
2023-03-03T14:45:32.397Z,2.53
2023-03-03T14:48:06.915Z,1.17
2023-03-03T14:50:37.809Z,1.38
2023-03-03T14:53:21.472Z,1.42
2023-03-03T14:55:52.903Z,1.80
2023-03-03T14:58:30.805Z,1.83
2023-03-03T15:01:10.299Z,2.78
2023-03-03T15:03:40.941Z,2.53
2023-03-03T15:06:13.941Z,7.03
2023-03-03T15:08:43.537Z,1.02
2023-03-03T15:11:22.019Z,2.88
2023-03-03T15:13:49.986Z,2.55
2023-03-03T15:16:19.868Z,2.33
2023-03-03T15:19:20.243Z,3.38
2023-03-03T15:22:00.818Z,7.13
2023-03-03T15:24:39.032Z,9.13
2023-03-03T15:27:14.510Z,2.53
2023-03-03T15:29:53.194Z,6.95
2023-03-03T15:32:31.059Z,8.02
2023-03-03T15:35:11.378Z,13.77
2023-03-03T15:37:47.929Z,7.43
2023-03-03T15:40:26.940Z,7.45
2023-03-03T15:43:05.679Z,6.45
2023-03-03T15:45:37.984Z,3.25
2023-03-03T15:48:17.832Z,2.88
2023-03-03T15:50:53.583Z,3.30
2023-03-03T15:53:43.852Z,6.70
2023-03-03T15:56:25.829Z,2.22
2023-03-03T15:59:31.469Z,5.75
2023-03-03T16:02:11.838Z,2.85
2023-03-03T16:04:45.967Z,2.50
2023-03-03T16:07:26.976Z,3.08
2023-03-03T16:10:04.702Z,2.53
2023-03-03T16:12:41.327Z,3.00
2023-03-03T16:15:22.782Z,3.30
2023-03-03T16:18:00.322Z,4.32
2023-03-03T16:20:34.623Z,3.15
2023-03-03T16:23:30.143Z,3.00
2023-03-03T16:26:09.409Z,1.10
2023-03-03T16:28:51.583Z,4.28
2023-03-03T16:31:26.682Z,5.60
2023-03-03T16:34:04.555Z,2.85
2023-03-03T16:36:41.543Z,1.75
2023-03-03T16:39:16.274Z,2.45
2023-03-03T16:41:52.380Z,5.53
2023-03-03T16:44:34.210Z,2.53
2023-03-03T16:47:17.507Z,6.40
2023-03-03T16:49:53.812Z,1.40
2023-03-03T16:52:30.826Z,1.85
2023-03-03T16:55:04.212Z,3.03
2023-03-03T16:57:42.982Z,2.28
2023-03-03T17:00:18.973Z,4.30
2023-03-03T17:03:05.118Z,5.28
2023-03-03T17:05:44.246Z,1.65
2023-03-03T17:08:34.311Z,3.80
2023-03-03T17:11:13.362Z,2.58
2023-03-03T17:14:07.098Z,1.13
2023-03-03T17:16:52.674Z,0.90
2023-03-03T17:19:37.535Z,0.80
2023-03-03T17:22:15.679Z,1.90
2023-03-03T17:24:53.516Z,5.32
2023-03-03T17:27:29.143Z,1.23
2023-03-03T17:30:04.390Z,1.38
2023-03-03T17:33:07.477Z,2.05
2023-03-03T17:35:53.222Z,0.70
2023-03-03T17:38:34.796Z,1.35
2023-03-03T17:41:07.786Z,0.73
2023-03-03T17:43:45.394Z,0.50
2023-03-03T17:46:18.696Z,0.88
2023-03-03T17:49:09.358Z,0.85
2023-03-03T17:52:01.173Z,0.85
2023-03-03T17:55:04.549Z,0.98
2023-03-03T17:57:52.106Z,1.83
2023-03-03T18:00:32.693Z,0.75
2023-03-03T18:03:31.784Z,1.83
2023-03-03T18:06:19.404Z,3.00
2023-03-03T18:09:15.433Z,1.10
2023-03-03T18:12:00.159Z,0.75
2023-03-03T18:14:49.456Z,0.70
2023-03-03T18:17:34.729Z,0.93
2023-03-03T18:20:31.425Z,2.17
2023-03-03T18:23:19.596Z,1.95
2023-03-03T18:25:57.941Z,2.10
2023-03-03T18:28:44.792Z,0.63
2023-03-03T18:31:24.371Z,1.55
2023-03-03T18:34:09.812Z,1.30
2023-03-03T18:36:52.022Z,1.45
2023-03-03T18:39:37.699Z,0.82
2023-03-03T18:42:13.074Z,0.50
2023-03-03T18:44:41.132Z,0.73
2023-03-03T18:47:09.599Z,0.85
2023-03-03T18:49:58.009Z,1.33
2023-03-03T18:52:29.434Z,0.63
2023-03-03T18:55:23.285Z,1.73
2023-03-03T18:58:28.645Z,0.65
2023-03-03T19:01:00.917Z,1.58
2023-03-03T19:03:33.722Z,1.02
2023-03-03T19:06:02.726Z,2.75
2023-03-03T19:08:51.298Z,0.70
2023-03-03T19:11:37.770Z,2.63
2023-03-03T19:14:34.270Z,0.77
2023-03-03T19:17:34.859Z,3.83
2023-03-03T19:20:11.903Z,3.67
2023-03-03T19:22:46.363Z,2.38
2023-03-03T19:25:23.056Z,0.98
2023-03-03T19:28:01.147Z,0.75
2023-03-03T19:30:46.687Z,0.25
2023-03-03T19:33:38.366Z,2.00
2023-03-03T19:36:18.319Z,1.23
2023-03-03T19:39:08.126Z,1.05
2023-03-03T19:41:50.558Z,2.58
2023-03-03T19:44:30.582Z,2.60
2023-03-03T19:47:04.611Z,1.05
2023-03-03T19:49:55.068Z,0.85
2023-03-03T19:52:31.439Z,1.33
2023-03-03T19:55:14.748Z,0.90
2023-03-03T19:57:53.486Z,1.00
2023-03-03T20:00:28.253Z,0.82
2023-03-03T20:03:20.489Z,1.20
2023-03-03T20:05:53.300Z,1.58
2023-03-03T20:08:29.360Z,2.50
2023-03-03T20:11:03.559Z,0.77
2023-03-03T20:13:45.212Z,2.25
2023-03-03T20:16:24.360Z,1.73
2023-03-03T20:19:10.029Z,0.55
2023-03-03T20:21:42.688Z,0.20
2023-03-03T20:24:42.667Z,1.67
2023-03-03T20:27:16.424Z,1.45
2023-03-03T20:30:11.299Z,0.60
2023-03-03T20:32:53.867Z,1.10
2023-03-03T20:35:32.822Z,0.38
2023-03-03T20:38:13.382Z,1.85
2023-03-03T20:40:51.824Z,0.82
2023-03-03T20:43:36.171Z,1.20
2023-03-03T20:46:12.076Z,0.95
2023-03-03T20:49:09.904Z,0.60
2023-03-03T20:51:44.549Z,0.50
2023-03-03T20:54:24.490Z,0.65
2023-03-03T20:57:04.485Z,0.35
2023-03-03T20:59:38.482Z,0.98
2023-03-03T21:02:17.743Z,1.08
2023-03-03T21:04:45.846Z,0.75
2023-03-03T21:07:26.296Z,1.25
2023-03-03T21:10:12.509Z,1.27
2023-03-03T21:12:42.138Z,1.10
2023-03-03T21:15:25.118Z,1.02
2023-03-03T21:17:54.880Z,1.17
2023-03-03T21:20:29.913Z,1.08
2023-03-03T21:22:59.066Z,6.88
2023-03-03T21:25:48.256Z,1.83
2023-03-03T21:28:20.522Z,2.03
2023-03-03T21:31:09.089Z,0.63
2023-03-03T21:33:48.091Z,10.15
2023-03-03T21:36:17.977Z,5.80
2023-03-03T21:38:47.208Z,12.50
2023-03-03T21:41:16.519Z,7.28
2023-03-03T21:43:47.725Z,1.42
2023-03-03T21:46:19.348Z,1.00
2023-03-03T21:48:47.455Z,1.80
2023-03-03T21:51:15.585Z,0.63
2023-03-03T21:53:44.233Z,1.58
2023-03-03T21:56:13.868Z,2.08
2023-03-03T21:58:42.288Z,1.02
2023-03-03T22:01:11.674Z,2.40
2023-03-03T22:03:40.624Z,1.08
2023-03-03T22:06:08.814Z,0.80
2023-03-03T22:08:36.787Z,3.20
2023-03-03T22:11:05.662Z,2.92
2023-03-03T22:13:33.674Z,2.80
2023-03-03T22:16:01.643Z,3.80
2023-03-03T22:18:30.956Z,1.25
2023-03-03T22:20:58.906Z,1.63
2023-03-03T22:23:26.932Z,1.38
2023-03-03T22:25:54.859Z,1.00
2023-03-03T22:28:23.266Z,2.08
2023-03-03T22:30:51.383Z,1.42
2023-03-03T22:33:19.359Z,0.68
2023-03-03T22:35:49.074Z,1.15
2023-03-03T22:38:17.835Z,4.13
2023-03-03T22:40:45.825Z,0.28
2023-03-03T22:43:14.598Z,1.08
2023-03-03T22:45:44.637Z,0.35
2023-03-03T22:48:13.276Z,1.25
2023-03-03T22:50:42.853Z,1.88
2023-03-03T22:53:12.562Z,2.40
2023-03-03T22:55:40.491Z,1.65
2023-03-03T22:58:09.610Z,1.10
2023-03-03T23:00:39.175Z,0.52
2023-03-03T23:03:07.475Z,0.90
2023-03-03T23:05:35.950Z,0.47
2023-03-03T23:08:05.419Z,0.20
2023-03-03T23:10:34.980Z,0.57
2023-03-03T23:13:03.210Z,0.95
2023-03-03T23:15:31.453Z,2.60
2023-03-03T23:17:59.350Z,1.75
2023-03-03T23:20:30.431Z,0.63
2023-03-03T23:22:58.718Z,0.43
2023-03-03T23:25:26.992Z,0.80
2023-03-03T23:27:57.226Z,1.63
2023-03-03T23:30:25.891Z,3.25
2023-03-03T23:32:54.760Z,1.77
2023-03-03T23:35:23.088Z,0.65
2023-03-03T23:37:51.116Z,1.05
2023-03-03T23:40:19.724Z,1.90
2023-03-03T23:42:47.680Z,1.65
2023-03-03T23:45:17.272Z,0.90
2023-03-03T23:47:45.298Z,0.40
2023-03-03T23:50:13.666Z,1.70
2023-03-03T23:52:42.018Z,3.15
2023-03-03T23:55:10.801Z,2.28
2023-03-03T23:57:38.824Z,5.63
